Main page
Satellite images 10-day forecastsClimateMarine weather Cyclones Lightning AirportsFAQ Newsletter About
Weather : Europe Africa North America South America Asia Australia-Oceania Others
Languages Contact

Bauru, São Paulo, Brazil

Bauru Airport

latitude: 22-19S, longitude: 049-04W, elevation: 590 m


METAR: SBBU 252200Z 12006KT CAVOK 22/16 Q1018
TAF: SBBU 251600Z 2518/2606 16010KT 9999 SCT040 TX29/2518Z TN18/2606Z BECMG 2521/2523 CAVOK RMK PEL

Time: 20:14 (23:14 UTC)

Current weather observation

The report was made 1 hour and 14 minutes ago, at 22:00 UTC
Wind 6 kt from the East/Southeast
Temperature 22°C
Humidity 69%
Pressure 1018 hPa
Visibility 10 km or more
no clouds below 1500 m and no cumulonimbus

Change units

Forecast

The report was made 7 hours and 14 minutes ago, at 16:00 UTC
Forecast valid from 25 at 18 UTC to 26 at 06 UTC
Wind 10 kt from the South/Southeast
Visibility 10 km or more
Scattered clouds at a height of 4000 ft
Becoming
from 25 at 21 UTC to 25 at 23 UTC
Visibility 10 km or more
no clouds below 1500 m and no cumulonimbus
The information on this site is subject to a disclaimer
Weather : Europe Africa North America South America Asia Australia-Oceania Others
Satellite images 10-day forecastsClimateMarine weather Cyclones Lightning AirportsFAQ Languages Contact Newsletter About